createdAt,value
2018-07-07T00:01:00.419Z,99.90
2018-07-07T00:03:28.591Z,99.90
2018-07-07T00:05:56.766Z,99.90
2018-07-07T00:08:24.961Z,99.90
2018-07-07T00:10:55.908Z,99.90
2018-07-07T00:15:52.015Z,99.90
2018-07-07T00:18:20.196Z,99.90
2018-07-07T00:20:48.367Z,99.90
2018-07-07T00:23:16.535Z,99.90
2018-07-07T00:25:44.708Z,99.90
2018-07-07T00:28:12.925Z,99.90
2018-07-07T00:30:41.122Z,99.90
2018-07-07T00:33:09.270Z,99.90
2018-07-07T00:39:07.702Z,99.90
2018-07-07T00:41:35.938Z,99.90
2018-07-07T00:44:04.107Z,99.90
2018-07-07T00:46:32.294Z,99.90
2018-07-07T00:51:34.934Z,99.90
2018-07-07T01:11:17.953Z,99.90
2018-07-07T01:13:46.284Z,99.90
2018-07-07T01:16:14.441Z,99.90
2018-07-07T01:18:42.622Z,99.90
2018-07-07T01:21:10.998Z,99.90
2018-07-07T01:23:39.199Z,99.90
2018-07-07T01:28:35.632Z,99.90
2018-07-07T01:31:03.831Z,99.90
2018-07-07T01:33:32.017Z,99.90
2018-07-07T01:36:00.209Z,99.90
2018-07-07T01:38:28.412Z,99.90
2018-07-07T01:40:56.631Z,99.90
2018-07-07T01:43:24.812Z,99.90
2018-07-07T01:45:53.012Z,99.90
2018-07-07T01:48:21.245Z,99.90
2018-07-07T01:50:49.444Z,99.90
2018-07-07T02:01:56.437Z,99.90
2018-07-07T02:04:24.634Z,99.90
2018-07-07T02:06:52.859Z,99.90
2018-07-07T02:11:49.041Z,99.90
2018-07-07T02:14:17.253Z,99.90
2018-07-07T02:16:45.495Z,99.90
2018-07-07T02:19:13.681Z,99.90
2018-07-07T02:21:41.874Z,99.90
2018-07-07T02:24:10.116Z,99.90
2018-07-07T02:29:06.286Z,99.90
2018-07-07T02:31:34.496Z,99.90
2018-07-07T02:34:02.711Z,99.90
2018-07-07T02:36:30.917Z,99.90
2018-07-07T02:38:59.110Z,99.90
2018-07-07T02:41:27.336Z,99.90
2018-07-07T02:43:55.525Z,99.90
2018-07-07T02:46:23.790Z,99.90
2018-07-07T02:48:51.946Z,99.90
2018-07-07T02:51:20.199Z,99.90
2018-07-07T02:53:48.419Z,99.90
2018-07-07T02:56:16.615Z,99.90
2018-07-07T02:58:44.900Z,99.90
2018-07-07T03:01:13.101Z,99.90
2018-07-07T03:06:09.287Z,99.90
2018-07-07T03:08:37.488Z,99.90
2018-07-07T03:11:05.718Z,99.90
2018-07-07T03:13:33.920Z,99.90
2018-07-07T03:16:02.134Z,99.90
2018-07-07T03:18:30.324Z,99.90
2018-07-07T03:20:58.541Z,99.90
2018-07-07T03:23:26.736Z,99.90
2018-07-07T03:25:54.956Z,99.90
2018-07-07T03:28:23.186Z,99.90
2018-07-07T03:30:51.365Z,99.90
2018-07-07T03:33:19.615Z,99.90
2018-07-07T03:35:47.820Z,99.90
2018-07-07T03:38:16.019Z,99.90
2018-07-07T03:40:44.228Z,99.90
2018-07-07T03:43:12.439Z,99.90
2018-07-07T03:45:41.495Z,99.90
2018-07-07T03:48:09.770Z,99.90
2018-07-07T03:50:38.021Z,99.90
2018-07-07T03:53:06.301Z,99.90
2018-07-07T03:55:34.541Z,99.90
2018-07-07T03:58:02.733Z,99.90
2018-07-07T04:00:30.955Z,99.90
2018-07-07T04:02:59.178Z,99.90
2018-07-07T04:05:27.367Z,99.90
2018-07-07T04:07:55.565Z,99.90
2018-07-07T04:10:23.757Z,99.90
2018-07-07T04:12:52.003Z,99.90
2018-07-07T04:15:20.192Z,99.90
2018-07-07T04:17:48.409Z,99.90
2018-07-07T04:20:16.629Z,99.90
2018-07-07T04:22:44.855Z,99.90
2018-07-07T04:25:13.064Z,99.90
2018-07-07T04:27:41.284Z,99.90
2018-07-07T04:30:09.507Z,99.90
2018-07-07T04:32:37.719Z,99.90
2018-07-07T04:35:05.946Z,99.90
2018-07-07T04:37:34.136Z,99.90
2018-07-07T04:40:02.367Z,99.90
2018-07-07T04:42:30.566Z,99.90
2018-07-07T04:44:58.799Z,99.90
2018-07-07T04:47:26.999Z,99.90
2018-07-07T04:49:55.240Z,99.90
2018-07-07T04:52:23.550Z,99.90
2018-07-07T04:54:51.755Z,99.90
2018-07-07T04:57:19.977Z,99.90
2018-07-07T04:59:48.163Z,99.90
2018-07-07T05:02:16.367Z,99.90
2018-07-07T05:04:44.565Z,99.90
2018-07-07T05:07:12.778Z,99.90
2018-07-07T05:12:08.959Z,99.90
2018-07-07T05:14:37.149Z,99.90
2018-07-07T05:17:05.349Z,99.90
2018-07-07T05:19:33.578Z,99.90
2018-07-07T05:22:01.775Z,99.90
2018-07-07T05:24:30.029Z,99.90
2018-07-07T05:26:58.238Z,99.90
2018-07-07T05:29:26.443Z,99.90
2018-07-07T05:31:54.757Z,99.90
2018-07-07T05:34:22.945Z,99.90
2018-07-07T05:36:51.144Z,99.90
2018-07-07T05:39:19.464Z,99.90
2018-07-07T05:41:47.694Z,99.90
2018-07-07T05:44:15.935Z,99.90
2018-07-07T05:46:44.156Z,99.90
2018-07-07T05:49:12.367Z,99.90
2018-07-07T05:51:40.582Z,99.90
2018-07-07T05:54:08.786Z,99.90
2018-07-07T05:59:05.041Z,99.90
2018-07-07T06:06:29.197Z,99.90
2018-07-07T06:08:57.424Z,99.90
2018-07-07T06:11:25.634Z,99.90
2018-07-07T06:13:53.859Z,99.90
2018-07-07T06:16:22.076Z,99.90
2018-07-07T06:18:50.319Z,99.90
2018-07-07T06:21:18.588Z,99.90
2018-07-07T06:23:46.818Z,99.90
2018-07-07T06:28:43.049Z,99.90
2018-07-07T06:31:11.291Z,99.90
2018-07-07T06:33:39.503Z,99.90
2018-07-07T06:36:07.742Z,99.90
2018-07-07T06:38:36.036Z,99.90
2018-07-07T06:41:04.264Z,99.90
2018-07-07T06:43:32.508Z,99.90
2018-07-07T06:46:00.745Z,99.90
2018-07-07T06:50:56.990Z,99.90
2018-07-07T06:53:25.240Z,99.90
2018-07-07T06:55:53.509Z,99.90
2018-07-07T06:58:21.780Z,99.90
2018-07-07T07:00:50.053Z,99.90
2018-07-07T07:03:18.284Z,99.90
2018-07-07T07:05:46.484Z,99.90
2018-07-07T07:10:42.641Z,99.90
2018-07-07T07:13:10.867Z,99.90
2018-07-07T07:15:39.096Z,99.90
2018-07-07T07:20:35.314Z,99.90
2018-07-07T07:23:03.536Z,99.90
2018-07-07T07:25:31.761Z,99.90
2018-07-07T07:27:59.978Z,99.90
2018-07-07T07:30:28.168Z,99.90
2018-07-07T07:35:24.406Z,99.90
2018-07-07T07:37:52.682Z,99.90
2018-07-07T07:40:20.886Z,99.90
2018-07-07T07:42:49.098Z,99.90
2018-07-07T07:45:17.316Z,99.90
2018-07-07T07:47:45.547Z,99.90
2018-07-07T07:50:13.744Z,99.90
2018-07-07T07:52:42.031Z,99.90
2018-07-07T07:55:10.267Z,99.90
2018-07-07T07:57:38.468Z,99.90
2018-07-07T08:00:06.688Z,99.90
2018-07-07T08:02:34.940Z,99.90
2018-07-07T08:05:03.132Z,99.90
2018-07-07T08:07:31.360Z,99.90
2018-07-07T08:12:27.752Z,99.90
2018-07-07T08:14:55.955Z,99.90
2018-07-07T08:17:24.192Z,99.90
2018-07-07T08:19:52.422Z,99.90
2018-07-07T08:22:20.680Z,99.90
2018-07-07T08:24:48.900Z,99.90
2018-07-07T08:27:17.210Z,99.90
2018-07-07T08:29:45.417Z,99.90
2018-07-07T08:32:13.656Z,99.90
2018-07-07T08:37:09.879Z,99.90
2018-07-07T08:39:38.123Z,99.90
2018-07-07T08:42:06.405Z,99.90
2018-07-07T08:44:34.636Z,99.90
2018-07-07T08:47:02.832Z,99.90
2018-07-07T08:49:31.057Z,99.90
2018-07-07T08:51:59.253Z,99.90
2018-07-07T08:54:27.510Z,99.90
2018-07-07T08:56:55.737Z,99.90
2018-07-07T08:59:23.967Z,99.90
2018-07-07T09:01:52.234Z,99.90
2018-07-07T09:04:20.567Z,99.90
2018-07-07T09:06:48.811Z,99.90
2018-07-07T09:09:17.181Z,99.90
2018-07-07T09:11:45.498Z,99.90
2018-07-07T09:14:13.836Z,99.90
2018-07-07T09:16:42.062Z,99.90
2018-07-07T09:19:10.292Z,98.80
2018-07-07T09:21:38.514Z,99.60
2018-07-07T09:24:06.770Z,99.90
2018-07-07T09:26:34.979Z,99.30
2018-07-07T09:29:03.233Z,98.90
2018-07-07T09:31:31.457Z,99.40
2018-07-07T09:33:59.719Z,99.20
2018-07-07T09:36:28.344Z,98.30
2018-07-07T09:38:56.589Z,98.10
2018-07-07T09:41:24.812Z,98.60
2018-07-07T09:43:53.080Z,96.20
2018-07-07T09:46:21.332Z,96.20
2018-07-07T09:48:49.562Z,94.00
2018-07-07T09:51:17.816Z,93.70
2018-07-07T09:53:46.103Z,93.90
2018-07-07T09:56:14.382Z,92.70
2018-07-07T09:58:42.605Z,94.40
2018-07-07T10:01:10.844Z,94.10
2018-07-07T10:03:39.076Z,94.00
2018-07-07T10:06:07.360Z,93.80
2018-07-07T10:08:35.589Z,95.10
2018-07-07T10:11:03.837Z,94.50
2018-07-07T10:13:32.143Z,91.90
2018-07-07T10:16:00.367Z,92.40
2018-07-07T10:18:28.613Z,92.90
2018-07-07T10:20:56.848Z,93.30
2018-07-07T10:23:25.071Z,93.40
2018-07-07T10:25:53.311Z,95.10
2018-07-07T10:28:21.565Z,92.70
2018-07-07T10:30:49.772Z,91.50
2018-07-07T10:33:18.028Z,90.60
2018-07-07T10:35:46.243Z,91.20
2018-07-07T10:38:14.554Z,91.10
2018-07-07T10:40:42.717Z,91.30
2018-07-07T10:43:11.120Z,91.20
2018-07-07T10:45:39.363Z,91.90
2018-07-07T10:48:07.598Z,91.70
2018-07-07T10:50:35.820Z,91.80
2018-07-07T10:55:32.088Z,91.70
2018-07-07T10:58:00.235Z,92.00
2018-07-07T11:00:28.513Z,91.80
2018-07-07T11:02:56.776Z,91.80
2018-07-07T11:05:25.029Z,91.40
2018-07-07T11:07:53.390Z,89.10
2018-07-07T11:10:21.665Z,90.30
2018-07-07T11:12:49.911Z,87.10
2018-07-07T11:15:18.148Z,88.80
2018-07-07T11:17:46.400Z,89.80
2018-07-07T11:20:14.641Z,87.70
2018-07-07T11:22:42.888Z,88.20
2018-07-07T11:25:11.140Z,89.60
2018-07-07T11:27:39.403Z,90.00
2018-07-07T11:30:07.704Z,90.10
2018-07-07T11:32:35.934Z,90.60
2018-07-07T11:37:32.576Z,90.40
2018-07-07T11:40:00.856Z,88.30
2018-07-07T11:42:29.099Z,86.10
2018-07-07T11:44:57.340Z,88.60
2018-07-07T11:47:25.600Z,90.10
2018-07-07T11:49:53.854Z,90.10
2018-07-07T11:52:22.109Z,86.00
2018-07-07T11:54:50.340Z,85.00
2018-07-07T11:57:18.628Z,89.20
2018-07-07T12:02:14.964Z,89.20
2018-07-07T12:04:43.340Z,87.50
2018-07-07T12:07:11.517Z,87.30
2018-07-07T12:09:39.727Z,84.70
2018-07-07T12:14:35.999Z,83.20
2018-07-07T12:17:04.293Z,81.90
2018-07-07T12:19:32.575Z,84.30
2018-07-07T12:22:00.860Z,82.50
2018-07-07T12:24:29.143Z,81.80
2018-07-07T12:26:57.375Z,81.80
2018-07-07T12:29:25.600Z,82.90
2018-07-07T12:31:53.825Z,84.70
2018-07-07T12:34:22.102Z,83.40
2018-07-07T12:36:50.361Z,83.50
2018-07-07T12:39:18.675Z,82.40
2018-07-07T12:41:46.877Z,80.70
2018-07-07T12:49:11.057Z,85.60
2018-07-07T12:51:39.288Z,83.60
2018-07-07T12:54:07.599Z,82.00
2018-07-07T12:56:35.932Z,79.10
2018-07-07T12:59:04.181Z,79.60
2018-07-07T13:01:32.403Z,81.00
2018-07-07T13:09:00.548Z,78.20
2018-07-07T13:11:28.865Z,80.30
2018-07-07T13:13:57.084Z,83.30
2018-07-07T13:18:53.296Z,82.10
2018-07-07T13:21:21.520Z,79.90
2018-07-07T13:23:49.767Z,78.90
2018-07-07T13:26:18.087Z,77.20
2018-07-07T13:28:46.290Z,79.50
2018-07-07T13:31:14.571Z,79.40
2018-07-07T13:33:42.895Z,80.30
2018-07-07T13:36:11.115Z,79.60
2018-07-07T13:38:39.443Z,79.60
2018-07-07T13:43:37.866Z,81.10
2018-07-07T13:46:06.117Z,81.60
2018-07-07T13:48:34.447Z,79.70
2018-07-07T13:51:02.716Z,76.50
2018-07-07T13:53:31.029Z,78.10
2018-07-07T13:55:59.297Z,78.10
2018-07-07T14:03:24.331Z,80.60
2018-07-07T14:05:52.543Z,80.40
2018-07-07T14:08:20.823Z,79.10
2018-07-07T14:10:49.082Z,76.40
2018-07-07T14:13:17.368Z,79.10
2018-07-07T14:18:13.690Z,79.00
2018-07-07T14:20:41.951Z,81.00
2018-07-07T14:23:10.176Z,79.10
2018-07-07T14:25:38.425Z,81.00
2018-07-07T14:28:06.695Z,83.70
2018-07-07T14:30:34.935Z,80.10
2018-07-07T14:33:03.252Z,83.00
2018-07-07T14:35:31.492Z,82.70
2018-07-07T14:40:27.780Z,81.00
2018-07-07T14:42:56.847Z,82.10
2018-07-07T14:48:01.920Z,81.80
2018-07-07T14:50:30.214Z,79.70
2018-07-07T14:52:58.421Z,80.20
2018-07-07T14:55:28.026Z,80.60
2018-07-07T14:57:56.306Z,82.80
2018-07-07T15:00:25.779Z,77.30
2018-07-07T15:02:55.079Z,78.60
2018-07-07T15:05:23.363Z,79.20
2018-07-07T15:07:51.712Z,77.00
2018-07-07T15:10:20.054Z,78.80
2018-07-07T15:12:48.604Z,77.10
2018-07-07T15:15:16.959Z,78.20
2018-07-07T15:17:46.087Z,76.10
2018-07-07T15:20:14.395Z,76.60
2018-07-07T15:22:42.707Z,78.00
2018-07-07T15:25:10.878Z,76.50
2018-07-07T15:27:39.137Z,77.60
2018-07-07T15:30:08.410Z,78.40
2018-07-07T15:32:36.772Z,79.30
2018-07-07T15:35:05.075Z,74.70
2018-07-07T15:37:33.354Z,77.60
2018-07-07T15:40:01.593Z,74.80
2018-07-07T15:42:29.976Z,75.60
2018-07-07T15:44:58.227Z,73.80
2018-07-07T15:47:26.443Z,76.60
2018-07-07T15:49:54.686Z,76.00
2018-07-07T15:52:22.969Z,75.70
2018-07-07T15:54:51.199Z,74.90
2018-07-07T15:57:19.489Z,74.30
2018-07-07T15:59:47.762Z,74.00
2018-07-07T16:02:16.043Z,75.80
2018-07-07T16:04:44.275Z,79.60
2018-07-07T16:07:12.533Z,76.90
2018-07-07T16:12:08.857Z,78.20
2018-07-07T16:14:37.124Z,78.00
2018-07-07T16:17:05.430Z,75.00
2018-07-07T16:19:33.735Z,76.70
2018-07-07T16:22:02.066Z,76.70
2018-07-07T16:24:30.371Z,75.70
2018-07-07T16:26:58.636Z,77.00
2018-07-07T16:29:26.912Z,74.40
2018-07-07T16:31:55.241Z,76.90
2018-07-07T16:34:23.505Z,74.90
2018-07-07T16:36:51.781Z,74.90
2018-07-07T16:39:20.040Z,76.50
2018-07-07T16:41:48.288Z,77.90
2018-07-07T16:44:16.679Z,78.20
2018-07-07T16:46:45.405Z,76.80
2018-07-07T16:49:13.649Z,77.60
2018-07-07T16:51:41.902Z,78.50
2018-07-07T16:54:10.248Z,76.20
2018-07-07T16:56:38.513Z,77.00
2018-07-07T16:59:06.761Z,75.90
2018-07-07T17:01:35.682Z,76.50
2018-07-07T17:04:03.976Z,77.00
2018-07-07T17:06:32.228Z,78.90
2018-07-07T17:09:00.493Z,77.30
2018-07-07T17:11:28.711Z,79.30
2018-07-07T17:13:56.939Z,80.40
2018-07-07T17:16:25.177Z,81.20
2018-07-07T17:18:53.470Z,81.90
2018-07-07T17:21:22.192Z,82.60
2018-07-07T17:23:50.572Z,82.90
2018-07-07T17:28:47.475Z,83.50
2018-07-07T17:31:15.736Z,84.30
2018-07-07T17:33:45.124Z,84.30
2018-07-07T17:38:41.612Z,83.50
2018-07-07T17:41:10.738Z,84.10
2018-07-07T17:46:30.008Z,84.80
2018-07-07T17:48:58.231Z,84.80
2018-07-07T17:51:27.170Z,85.10
2018-07-07T17:53:57.203Z,83.70
2018-07-07T17:56:25.673Z,84.50
2018-07-07T17:58:54.293Z,85.70
2018-07-07T18:01:22.805Z,86.90
2018-07-07T18:06:19.439Z,86.90
2018-07-07T18:08:47.738Z,87.00
2018-07-07T18:11:15.952Z,87.40
2018-07-07T18:13:44.221Z,87.50
2018-07-07T18:18:40.382Z,89.60
2018-07-07T18:23:36.985Z,90.30
2018-07-07T18:26:05.257Z,90.00
2018-07-07T18:28:33.503Z,90.20
2018-07-07T18:33:29.735Z,90.80
2018-07-07T18:35:58.000Z,90.80
2018-07-07T18:38:26.280Z,90.90
2018-07-07T18:40:54.618Z,91.00
2018-07-07T18:43:22.916Z,91.50
2018-07-07T18:45:51.172Z,91.10
2018-07-07T18:50:47.403Z,91.20
2018-07-07T18:53:15.837Z,91.90
2018-07-07T18:55:44.123Z,91.90
2018-07-07T18:58:12.422Z,91.80
2018-07-07T19:00:40.753Z,92.10
2018-07-07T19:05:37.034Z,92.70
2018-07-07T19:08:05.276Z,93.60
2018-07-07T19:10:33.652Z,93.30
2018-07-07T19:13:01.885Z,93.50
2018-07-07T19:15:30.221Z,93.70
2018-07-07T19:17:58.687Z,93.50
2018-07-07T19:20:32.388Z,93.90
2018-07-07T19:23:06.066Z,94.20
2018-07-07T19:25:39.758Z,94.00
2018-07-07T19:28:08.068Z,94.50
2018-07-07T19:30:36.357Z,94.50
2018-07-07T19:33:09.969Z,94.40
2018-07-07T19:35:43.681Z,94.40
2018-07-07T19:38:12.321Z,94.20
2018-07-07T19:40:40.731Z,95.40
2018-07-07T19:43:08.918Z,94.90
2018-07-07T19:45:37.217Z,95.80
2018-07-07T19:48:05.864Z,94.40
2018-07-07T19:50:34.132Z,95.00
2018-07-07T19:53:02.853Z,94.70
2018-07-07T19:55:31.246Z,95.40
2018-07-07T19:57:59.522Z,96.10
2018-07-07T20:00:27.774Z,94.60
2018-07-07T20:02:56.042Z,95.30
2018-07-07T20:05:24.295Z,95.00
2018-07-07T20:07:52.581Z,96.00
2018-07-07T20:10:20.819Z,95.50
2018-07-07T20:12:49.110Z,96.10
2018-07-07T20:15:17.395Z,94.90
2018-07-07T20:17:57.214Z,96.30
2018-07-07T20:20:34.004Z,96.50
2018-07-07T20:23:03.262Z,95.40
2018-07-07T20:25:31.565Z,95.50
2018-07-07T20:28:05.402Z,96.20
2018-07-07T20:33:02.478Z,96.90
2018-07-07T20:35:30.814Z,97.10
2018-07-07T20:37:59.213Z,97.10
2018-07-07T20:40:27.545Z,97.40
2018-07-07T20:42:55.891Z,98.00
2018-07-07T20:45:24.211Z,98.40
2018-07-07T20:47:52.824Z,98.60
2018-07-07T20:50:21.082Z,98.90
2018-07-07T20:52:49.344Z,98.60
2018-07-07T20:55:17.617Z,98.50
2018-07-07T20:57:45.919Z,98.20
2018-07-07T21:00:14.449Z,97.90
2018-07-07T21:02:42.707Z,97.40
2018-07-07T21:07:38.939Z,98.50
2018-07-07T21:10:07.200Z,99.40
2018-07-07T21:12:35.476Z,99.20
2018-07-07T21:15:03.764Z,99.50
2018-07-07T21:17:32.024Z,99.60
2018-07-07T21:20:00.257Z,99.50
2018-07-07T21:22:28.483Z,99.20
2018-07-07T21:24:56.714Z,99.90
2018-07-07T21:27:25.003Z,99.20
2018-07-07T21:32:21.236Z,99.30
2018-07-07T21:34:49.480Z,99.50
2018-07-07T21:37:17.727Z,99.30
2018-07-07T21:39:45.968Z,99.90
2018-07-07T21:42:14.393Z,99.80
2018-07-07T21:44:42.653Z,99.90
2018-07-07T21:47:10.935Z,99.20
2018-07-07T21:49:39.203Z,99.50
2018-07-07T21:52:07.743Z,99.90
2018-07-07T21:54:35.983Z,99.90
2018-07-07T21:57:04.259Z,99.90
2018-07-07T21:59:32.516Z,99.90
2018-07-07T22:02:06.147Z,99.90
2018-07-07T22:04:39.902Z,99.90
2018-07-07T22:07:13.951Z,99.90
2018-07-07T22:09:43.000Z,99.90
2018-07-07T22:12:11.249Z,99.90
2018-07-07T22:17:07.465Z,99.90
2018-07-07T22:19:35.681Z,99.90
2018-07-07T22:22:07.933Z,99.90
2018-07-07T22:24:36.447Z,99.90
2018-07-07T22:27:05.739Z,99.80
2018-07-07T22:29:34.029Z,99.40
2018-07-07T22:32:04.460Z,99.40
2018-07-07T22:34:37.062Z,99.40
2018-07-07T22:37:05.410Z,99.40
2018-07-07T22:39:36.579Z,99.90
2018-07-07T22:42:06.091Z,99.80
2018-07-07T22:44:34.999Z,99.70
2018-07-07T22:47:03.242Z,99.90
2018-07-07T22:49:31.743Z,99.90
2018-07-07T22:52:00.018Z,99.90
2018-07-07T22:56:56.232Z,99.90
2018-07-07T22:59:24.488Z,99.90
2018-07-07T23:01:52.728Z,99.90
2018-07-07T23:06:48.949Z,99.90
2018-07-07T23:09:17.995Z,99.90
2018-07-07T23:11:46.275Z,99.90
2018-07-07T23:14:14.512Z,99.90
2018-07-07T23:16:42.759Z,99.90
2018-07-07T23:19:10.960Z,99.90
2018-07-07T23:21:39.170Z,99.90
2018-07-07T23:24:07.422Z,99.90
2018-07-07T23:26:35.617Z,99.90
2018-07-07T23:46:20.060Z,99.90
2018-07-07T23:48:48.295Z,99.90
2018-07-07T23:51:16.536Z,99.90
2018-07-07T23:53:44.733Z,99.50
